Time;durP1;ratioP1;P1;durP2;ratioP2;P2;SDS_P1;SDS_P2;PMS_P1;PMS_P2;Temp;Humidity;BMP_temperature;BMP_pressure;BME280_temperature;BME280_humidity;BME280_pressure;Samples;Min_cycle;Max_cycle;Signal;HPM_P1;HPM_P2
2022/06/22 00:02:04;;;;;;;6.47;4.90;;;18.00;50.20;;;17.19;51.86;97431.25;5024784;28;20524;-72
2022/06/22 00:04:36;;;;;;;6.23;4.60;;;18.00;50.50;;;17.17;52.12;97444.34;5033835;27;20473;-79
2022/06/22 00:07:12;;;;;;;4.50;4.10;;;18.00;50.50;;;17.08;52.41;97441.34;5028120;28;20454;-80
2022/06/22 00:09:42;;;;;;;5.07;4.57;;;17.90;50.70;;;17.10;52.11;97446.56;5027257;27;20450;-74
2022/06/22 00:12:21;;;;;;;4.13;3.83;;;17.90;50.60;;;17.06;52.06;97450.88;5020974;27;20462;-81
2022/06/22 00:14:52;;;;;;;3.93;3.50;;;17.90;50.80;;;16.96;52.29;97455.22;5026208;28;21019;-75
2022/06/22 00:17:23;;;;;;;4.77;4.40;;;17.80;50.80;;;16.95;52.72;97442.69;5021498;28;20467;-74
2022/06/22 00:19:51;;;;;;;8.50;4.20;;;17.80;51.00;;;16.98;53.00;97453.03;5027448;27;20466;-73
2022/06/22 00:22:24;;;;;;;5.13;4.53;;;17.80;51.30;;;17.05;52.80;97458.28;5020955;27;20458;-72
2022/06/22 00:24:58;;;;;;;8.13;4.30;;;17.90;51.40;;;16.99;53.27;97448.47;5024627;28;20952;-72
2022/06/22 00:27:35;;;;;;;4.77;4.40;;;17.80;51.40;;;17.21;52.56;97445.47;5021546;27;20484;-73
2022/06/22 00:30:27;;;;;;;4.87;4.47;;;18.00;51.30;;;17.05;52.55;97432.88;5026104;28;20553;-75
2022/06/22 00:33:17;;;;;;;5.27;4.83;;;18.00;51.10;;;17.15;52.41;97446.53;5025120;28;20461;-77
2022/06/22 00:35:51;;;;;;;6.10;4.83;;;18.00;51.30;;;17.02;53.27;97433.44;5023133;28;21278;-72
2022/06/22 00:38:24;;;;;;;5.50;4.27;;;17.90;51.50;;;17.20;52.58;97432.06;5027856;27;20439;-73
2022/06/22 00:40:57;;;;;;;4.63;4.20;;;18.00;51.40;;;17.15;52.62;97408.31;5026584;27;20482;-76
2022/06/22 00:43:30;;;;;;;5.97;4.27;;;18.00;51.30;;;17.01;52.70;97412.69;5029565;27;20472;-72
2022/06/22 00:45:58;;;;;;;5.80;4.37;;;18.00;51.40;;;16.97;52.85;97418.66;5021229;28;20457;-77
2022/06/22 00:48:32;;;;;;;4.20;3.67;;;17.90;51.50;;;16.76;53.45;97419.75;5046599;27;20880;-74
2022/06/22 00:51:04;;;;;;;4.43;4.03;;;17.70;51.60;;;16.67;53.76;97420.25;5036339;27;20459;-77
2022/06/22 00:53:39;;;;;;;5.53;4.43;;;17.60;51.70;;;16.54;54.10;97410.72;5024985;28;20466;-71
2022/06/22 00:56:15;;;;;;;4.83;4.53;;;17.50;51.90;;;16.42;54.27;97419.09;5037541;28;20559;-78
2022/06/22 00:58:55;;;;;;;4.20;3.87;;;17.40;52.20;;;16.52;54.26;97412.06;5022859;28;20453;-72
2022/06/22 01:01:30;;;;;;;4.60;4.20;;;17.40;52.30;;;16.49;54.14;97407.94;5023886;27;20472;-77
2022/06/22 01:04:06;;;;;;;4.20;3.80;;;17.40;52.10;;;16.46;53.92;97408.50;5015599;28;20438;-75
2022/06/22 01:06:42;;;;;;;4.20;3.80;;;17.40;52.00;;;16.55;54.00;97406.06;5040064;28;20462;-72
2022/06/22 01:09:20;;;;;;;4.67;4.30;;;17.40;52.20;;;16.67;53.42;97398.44;5033451;27;20513;-70
2022/06/22 01:14:46;;;;;;;4.30;4.00;;;17.60;52.00;;;16.74;53.18;97400.09;5021418;28;20504;-72
2022/06/22 01:17:28;;;;;;;4.83;3.80;;;17.60;51.80;;;16.74;53.24;97387.28;5017062;28;20464;-74
2022/06/22 01:20:06;;;;;;;4.73;4.07;;;17.60;51.80;;;16.66;53.08;97382.34;5016865;28;20481;-71
2022/06/22 01:23:32;;;;;;;4.10;3.80;;;17.60;51.70;;;16.60;53.18;97381.50;5033857;28;20458;-72
2022/06/22 01:26:24;;;;;;;5.87;3.90;;;17.60;52.00;;;16.75;52.96;97377.16;5008170;28;20466;-72
2022/06/22 01:28:55;;;;;;;4.40;4.00;;;17.60;51.90;;;16.68;53.01;97375.53;5038110;28;20468;-73
2022/06/22 01:31:23;;;;;;;3.87;3.67;;;17.60;51.70;;;16.69;53.41;97377.19;5023647;28;21118;-72
2022/06/22 01:33:54;;;;;;;4.80;3.90;;;17.60;51.80;;;16.65;53.03;97370.63;5017747;28;20983;-73
2022/06/22 01:36:25;;;;;;;3.50;3.20;;;17.50;51.70;;;16.66;52.95;97377.72;5013434;28;20461;-73
2022/06/22 01:38:53;;;;;;;3.77;3.37;;;17.60;51.70;;;16.67;52.97;97382.09;5023770;28;20458;-72
2022/06/22 01:41:32;;;;;;;3.50;3.20;;;17.50;51.50;;;16.59;52.94;97379.88;5020700;28;20449;-75
2022/06/22 01:44:10;;;;;;;3.83;3.27;;;17.50;51.60;;;16.57;52.89;97384.78;5028031;27;20514;-72
2022/06/22 01:47:08;;;;;;;3.50;3.20;;;17.50;51.50;;;16.41;53.50;97375.78;5029246;27;20446;-70
2022/06/22 01:49:44;;;;;;;4.10;3.80;;;17.40;51.70;;;16.45;53.80;97381.50;5023571;28;20511;-71
2022/06/22 01:52:18;;;;;;;3.00;2.80;;;17.30;51.80;;;16.51;53.22;97380.44;5035403;27;20459;-88
2022/06/22 01:54:55;;;;;;;3.60;3.30;;;17.40;52.00;;;16.41;53.46;97383.94;5030046;27;20465;-75
2022/06/22 01:57:35;;;;;;;3.50;3.20;;;17.40;51.90;;;16.48;53.51;97387.22;5023043;28;20446;-79
2022/06/22 02:00:12;;;;;;;3.17;2.97;;;17.40;52.00;;;16.45;53.42;97378.75;5039718;27;21253;-74
2022/06/22 02:02:45;;;;;;;3.27;2.97;;;17.30;51.90;;;16.32;53.93;97363.75;5019517;28;20491;-73
2022/06/22 02:05:24;;;;;;;3.23;2.80;;;17.30;52.00;;;16.37;53.90;97385.56;5018883;27;20867;-78
2022/06/22 02:07:58;;;;;;;4.93;3.10;;;17.30;52.40;;;16.29;53.78;97385.00;5021836;28;20457;-72
2022/06/22 02:10:40;;;;;;;4.13;2.93;;;17.20;52.10;;;16.43;53.43;97396.22;5031235;27;20458;-72
2022/06/22 02:13:29;;;;;;;3.40;3.17;;;17.30;52.20;;;16.43;53.56;97398.94;5018101;28;20866;-79
2022/06/22 02:16:05;;;;;;;3.13;2.60;;;17.30;52.00;;;16.48;53.39;97391.88;5024127;27;20458;-72
2022/06/22 02:18:39;;;;;;;5.07;3.00;;;17.40;52.20;;;16.52;53.53;97398.41;5047884;28;20469;-78
2022/06/22 02:21:21;;;;;;;4.93;3.27;;;17.40;52.10;;;16.51;53.12;97394.06;5034764;27;20471;-72
2022/06/22 02:23:59;;;;;;;3.30;3.00;;;17.40;52.10;;;16.22;53.34;97353.66;5023805;28;20482;-71
2022/06/22 02:26:34;;;;;;;4.53;3.43;;;17.40;52.10;;;16.40;53.63;97388.56;5030741;28;20501;-71
2022/06/22 02:29:02;;;;;;;3.63;3.30;;;17.30;52.30;;;16.38;53.83;97381.78;5021787;28;20545;-73
2022/06/22 02:31:31;;;;;;;3.40;3.10;;;17.30;52.50;;;16.49;53.72;97391.59;5018748;28;21070;-83
2022/06/22 02:33:59;;;;;;;3.10;2.80;;;17.40;52.60;;;16.52;54.43;97384.78;5021724;28;20546;-76
2022/06/22 02:36:33;;;;;;;4.40;3.03;;;17.40;52.70;;;16.54;54.10;97393.50;5023090;28;20527;-72
2022/06/22 02:39:05;;;;;;;3.60;3.10;;;17.40;52.60;;;16.48;54.15;97384.50;5037567;28;20528;-72
2022/06/22 02:44:31;;;;;;;5.33;3.10;;;17.30;52.70;;;16.35;54.66;97377.66;4987109;28;20937;-73
2022/06/22 02:47:18;;;;;;;3.50;3.30;;;17.30;52.80;;;16.39;54.65;97386.94;5023322;28;20505;-71
2022/06/22 02:49:50;;;;;;;6.03;3.10;;;17.20;52.90;;;16.34;54.86;97373.31;5029986;28;20941;-72
2022/06/22 02:52:18;;;;;;;3.00;2.80;;;17.30;53.10;;;16.37;54.38;97364.59;5020043;28;20449;-75
2022/06/22 02:54:51;;;;;;;4.17;3.30;;;17.30;53.00;;;16.34;54.86;97367.84;5029377;28;20461;-73
2022/06/22 02:57:29;;;;;;;3.50;3.20;;;17.20;53.00;;;16.19;54.57;97365.88;5027115;28;20453;-75
2022/06/22 02:59:58;;;;;;;3.27;3.07;;;17.20;53.10;;;16.18;54.99;97382.53;5016501;28;20468;-74
2022/06/22 03:02:27;;;;;;;3.37;3.07;;;17.10;53.00;;;15.99;55.44;97380.25;5023589;28;20454;-73
2022/06/22 03:04:58;;;;;;;3.80;3.40;;;16.90;53.00;;;15.91;55.87;97370.69;5027686;28;20496;-71
2022/06/22 03:07:26;;;;;;;3.40;3.10;;;16.90;53.30;;;15.92;55.59;97368.81;5031239;28;20457;-71
2022/06/22 03:09:54;;;;;;;3.57;3.27;;;16.80;53.40;;;15.93;55.56;97378.63;5035604;27;20511;-73
2022/06/22 03:12:22;;;;;;;3.63;3.33;;;16.80;53.40;;;15.98;55.49;97392.25;5027272;28;20454;-72
2022/06/22 03:14:55;;;;;;;4.20;3.33;;;16.90;53.70;;;16.15;55.25;97375.69;5027125;28;20936;-73
2022/06/22 03:17:29;;;;;;;3.67;3.37;;;17.00;53.60;;;16.07;54.64;97357.97;5035379;27;20938;-79
2022/06/22 03:20:03;;;;;;;4.60;3.23;;;17.00;53.20;;;16.26;54.28;97379.25;5039384;28;20473;-72
2022/06/22 03:22:35;;;;;;;3.30;3.00;;;17.10;53.10;;;16.24;54.19;97386.91;5026743;27;20453;-74
2022/06/22 03:25:10;;;;;;;4.27;3.40;;;17.20;52.90;;;16.36;53.92;97382.03;5028884;27;20964;-72
2022/06/22 03:27:44;;;;;;;3.10;2.90;;;17.20;52.80;;;16.37;54.12;97378.22;5039970;28;20485;-75
2022/06/22 03:30:16;;;;;;;3.57;3.27;;;17.30;52.80;;;16.39;53.92;97367.06;5025169;27;20548;-75
2022/06/22 03:32:50;;;;;;;3.73;2.97;;;17.30;52.60;;;16.49;53.76;97375.22;5027353;28;20457;-71
2022/06/22 03:35:24;;;;;;;3.43;3.23;;;17.30;52.60;;;16.24;53.17;97346.00;5024277;28;20485;-75
2022/06/22 03:37:59;;;;;;;3.60;3.23;;;17.40;52.40;;;16.76;52.74;97398.72;5042580;27;20660;-73
2022/06/22 03:40:34;;;;;;;2.80;2.60;;;17.60;52.40;;;16.79;52.84;97390.00;5026117;28;20469;-78
2022/06/22 03:43:11;;;;;;;3.40;2.87;;;17.60;52.40;;;16.94;52.91;97391.94;5025147;27;20831;-72
2022/06/22 03:45:45;;;;;;;3.47;3.17;;;17.80;52.20;;;17.01;52.23;97393.59;5041806;27;20959;-79
2022/06/22 03:48:20;;;;;;;3.70;3.40;;;17.90;52.00;;;16.94;52.47;97391.09;5024638;27;20458;-75
2022/06/22 03:50:54;;;;;;;4.13;3.23;;;17.80;51.90;;;17.15;51.82;97383.78;5043318;27;20462;-71
2022/06/22 03:53:27;;;;;;;3.87;3.43;;;17.90;52.10;;;17.19;51.79;97387.56;5025237;27;20460;-72
2022/06/22 03:56:03;;;;;;;3.70;3.40;;;18.00;51.80;;;17.12;51.48;97374.22;5026159;28;20983;-71
2022/06/22 03:58:32;;;;;;;3.43;3.13;;;18.10;51.70;;;17.10;52.36;97384.59;5038772;28;20473;-73
2022/06/22 04:01:01;;;;;;;3.20;2.80;;;18.00;52.00;;;17.37;51.44;97378.00;5019745;28;20470;-72
2022/06/22 04:03:30;;;;;;;3.20;3.00;;;18.20;51.90;;;17.47;51.29;97374.44;5041088;28;20576;-77
2022/06/22 04:06:00;;;;;;;3.00;2.80;;;18.30;51.70;;;17.54;50.69;97353.13;5025899;27;20463;-70
2022/06/22 04:08:31;;;;;;;4.70;3.23;;;18.50;51.50;;;18.08;49.67;97391.75;5023216;27;20455;-77
2022/06/22 04:11:05;;;;;;;3.57;3.27;;;18.80;51.20;;;17.89;49.97;97388.00;5025177;27;20466;-71
2022/06/22 04:13:38;;;;;;;5.60;3.40;;;18.90;51.00;;;17.82;50.59;97388.28;5023392;27;20900;-71
2022/06/22 04:16:13;;;;;;;3.17;2.97;;;18.90;51.10;;;17.87;50.33;97374.59;5019858;28;20451;-72
2022/06/22 04:18:48;;;;;;;7.03;3.00;;;18.80;51.30;;;17.96;50.43;97391.22;5024731;28;20515;-74
2022/06/22 04:21:23;;;;;;;3.60;3.10;;;18.80;51.50;;;17.63;51.47;97390.78;5018469;28;20474;-71
2022/06/22 04:23:56;;;;;;;3.80;3.50;;;18.50;51.60;;;17.53;51.35;97400.66;5027946;27;20982;-71
2022/06/22 04:26:30;;;;;;;5.00;3.00;;;18.40;51.70;;;17.23;52.16;97399.59;5027026;28;20459;-80
2022/06/22 04:29:03;;;;;;;3.63;3.43;;;18.20;51.80;;;17.37;52.12;97404.50;5037862;28;21020;-72
2022/06/22 04:31:36;;;;;;;3.57;3.27;;;18.20;52.30;;;17.41;52.45;97405.59;5025958;28;20463;-76
2022/06/22 04:34:07;;;;;;;5.60;3.70;;;18.20;52.30;;;17.61;51.79;97393.81;5026633;27;20454;-79
2022/06/22 04:36:40;;;;;;;5.53;3.90;;;18.40;52.20;;;18.00;50.60;97395.06;5024919;27;20439;-74
2022/06/22 04:39:15;;;;;;;5.17;3.80;;;18.80;51.80;;;17.88;50.73;97391.81;5022130;27;20458;-79
2022/06/22 04:41:44;;;;;;;4.37;3.70;;;18.90;51.60;;;17.86;50.26;97336.66;5020930;27;20827;-82
2022/06/22 04:44:17;;;;;;;6.97;3.80;;;19.10;51.40;;;18.68;49.37;97390.91;5022830;27;20458;-80
2022/06/22 04:46:47;;;;;;;8.07;4.00;;;19.50;51.70;;;19.85;48.09;97384.97;5021503;27;20459;-80
2022/06/22 04:49:24;;;;;;;5.37;3.10;;;20.40;51.90;;;20.86;44.01;97369.41;5024395;28;20469;-80
2022/06/22 04:51:59;;;;;;;3.53;3.23;;;21.70;50.10;;;20.94;43.38;97376.94;5036706;27;20499;-79
2022/06/22 04:54:31;;;;;;;4.10;3.20;;;22.30;48.40;;;21.29;43.13;97384.91;5026119;27;20465;-79
2022/06/22 04:57:12;;;;;;;5.27;3.40;;;22.60;48.20;;;23.01;40.89;97383.06;5026375;27;20464;-80
2022/06/22 04:59:40;;;;;;;19.90;8.13;;;23.50;49.20;;;23.45;40.50;97394.41;5022129;28;20480;-80
2022/06/22 05:02:13;;;;;;;10.33;6.33;;;24.20;48.20;;;23.26;40.68;97382.72;5020724;28;20475;-79
2022/06/22 05:04:45;;;;;;;5.80;3.60;;;24.30;47.70;;;23.93;38.24;97400.31;5014245;28;20461;-81
2022/06/22 05:07:43;;;;;;;3.37;3.07;;;24.80;46.80;;;23.71;39.18;97401.97;5015742;27;20470;-81
2022/06/22 05:10:19;;;;;;;5.70;3.93;;;24.90;46.50;;;23.15;39.18;97399.53;5022711;28;20464;-81
2022/06/22 05:12:51;;;;;;;40.13;17.97;;;24.80;46.20;;;24.26;37.68;97385.31;5033241;27;20449;-81
2022/06/22 05:15:23;;;;;;;6.00;3.10;;;25.00;47.10;;;24.19;37.54;97396.84;5020547;28;20455;-80
2022/06/22 05:17:50;;;;;;;25.27;14.73;;;25.40;46.00;;;24.81;37.24;97389.50;5018236;28;20457;-80
2022/06/22 05:20:28;;;;;;;29.03;13.67;;;25.50;46.20;;;26.66;32.94;97390.84;5016252;28;20481;-80
2022/06/22 05:22:59;;;;;;;34.60;18.53;;;27.20;45.30;;;26.12;34.85;97384.81;5026986;27;20503;-82
2022/06/22 05:25:27;;;;;;;4.40;3.10;;;26.80;45.50;;;24.57;35.61;97341.06;5035212;27;20466;-82
2022/06/22 05:28:03;;;;;;;5.13;3.77;;;26.50;44.40;;;23.26;38.75;97400.13;5042722;28;20453;-82
2022/06/22 05:30:36;;;;;;;4.20;2.83;;;25.20;45.10;;;22.88;39.19;97395.78;5058036;28;20446;-80
2022/06/22 05:33:08;;;;;;;3.23;2.93;;;24.50;45.50;;;22.65;39.99;97403.19;5032289;28;20462;-81
2022/06/22 05:35:46;;;;;;;19.57;9.83;;;24.00;45.90;;;23.19;39.75;97397.78;5018873;28;20446;-80
2022/06/22 05:38:16;;;;;;;29.03;13.33;;;24.30;46.50;;;24.95;37.41;97394.84;5017584;28;20449;-80
2022/06/22 05:40:48;;;;;;;9.37;5.87;;;25.40;46.50;;;25.22;36.09;97397.59;5020519;28;20474;-82
2022/06/22 05:43:17;;;;;;;3.97;3.10;;;26.10;45.40;;;24.46;36.14;97372.84;5021028;28;20449;-80
2022/06/22 05:45:48;;;;;;;12.13;7.57;;;26.10;44.80;;;25.18;36.78;97409.28;5032650;27;20446;-81
2022/06/22 05:48:23;;;;;;;15.27;7.50;;;25.90;45.70;;;24.69;36.81;97400.34;5022165;28;20460;-82
2022/06/22 05:50:57;;;;;;;10.20;5.57;;;25.70;45.50;;;25.52;35.72;97406.84;5024110;27;20473;-82
2022/06/22 05:53:31;;;;;;;15.17;8.40;;;26.10;45.50;;;25.72;35.80;97397.03;5035869;27;20530;-82
2022/06/22 05:56:13;;;;;;;10.67;6.87;;;26.60;45.30;;;26.65;33.63;97403.88;5025357;28;20519;-85
2022/06/22 05:58:55;;;;;;;9.67;5.20;;;27.40;44.60;;;27.36;32.59;97404.09;5021043;28;20450;-84
2022/06/22 06:01:43;;;;;;;2.87;2.57;;;28.00;44.00;;;25.96;34.68;97398.38;5022832;28;20486;-76
2022/06/22 06:04:23;;;;;;;3.50;2.60;;;27.50;43.80;;;26.00;34.56;97390.22;5036380;27;20809;-75
2022/06/22 06:06:53;;;;;;;5.07;2.73;;;27.00;44.40;;;26.11;34.77;97404.50;5033590;28;20457;-74
2022/06/22 06:09:24;;;;;;;3.80;2.70;;;27.00;44.30;;;24.66;37.18;97401.78;5022150;28;20458;-75
2022/06/22 06:12:00;;;;;;;3.27;3.07;;;26.40;44.50;;;25.04;37.07;97400.38;5023628;28;20464;-75
2022/06/22 06:14:34;;;;;;;4.83;3.07;;;26.00;45.30;;;24.75;37.27;97397.09;5016873;28;21101;-75
2022/06/22 06:17:06;;;;;;;4.07;2.73;;;25.80;45.30;;;25.56;35.52;97407.00;5021787;28;20473;-75
2022/06/22 06:19:38;;;;;;;4.43;3.20;;;26.30;45.20;;;25.41;36.14;97397.22;5017481;28;20465;-75
2022/06/22 06:22:08;;;;;;;2.97;2.73;;;26.50;44.90;;;24.80;37.22;97404.44;5053688;28;20470;-75
2022/06/22 06:27:34;;;;;;;3.13;2.83;;;26.00;45.10;;;24.94;37.24;97392.41;5030662;28;20456;-75
2022/06/22 06:27:38;;;;;;;2.77;2.57;;;25.80;45.50;;;25.26;36.62;97399.38;5038744;27;20465;-74
2022/06/22 06:30:15;;;;;;;4.50;3.60;;;25.90;45.70;;;24.64;38.20;97397.72;5023775;28;20457;-77
2022/06/22 06:32:51;;;;;;;3.67;3.27;;;25.50;45.90;;;24.72;38.08;97397.75;5033330;28;20536;-74
2022/06/22 06:35:28;;;;;;;6.77;3.57;;;25.60;46.10;;;23.98;39.61;97408.44;5019580;28;20466;-74
2022/06/22 06:38:05;;;;;;;4.50;3.00;;;25.00;46.40;;;22.97;41.70;97408.78;5013445;28;21020;-74
2022/06/22 06:40:42;;;;;;;8.40;3.63;;;24.20;46.90;;;23.51;40.96;97406.13;5034927;27;20455;-75
2022/06/22 06:43:29;;;;;;;5.27;3.40;;;24.00;47.50;;;23.94;40.06;97395.59;5021129;28;20497;-74
2022/06/22 06:46:00;;;;;;;10.80;4.20;;;24.50;47.40;;;24.07;39.87;97399.41;5021023;28;20543;-74
2022/06/22 06:48:29;;;;;;;5.60;3.57;;;24.60;47.20;;;23.66;40.64;97391.09;5022842;28;20456;-74
2022/06/22 06:51:02;;;;;;;6.03;4.20;;;24.50;47.20;;;23.48;41.34;97396.53;5018680;28;20453;-74
2022/06/22 06:53:41;;;;;;;5.87;3.73;;;24.40;47.50;;;23.79;41.16;97394.88;5021548;28;20434;-75
2022/06/22 06:56:17;;;;;;;4.27;3.27;;;24.50;47.90;;;23.35;41.95;97405.69;5022093;27;20520;-75
2022/06/22 06:58:54;;;;;;;4.10;3.70;;;24.10;47.90;;;23.28;41.94;97399.81;5028638;27;20469;-76
2022/06/22 07:01:27;;;;;;;8.20;3.90;;;24.10;48.00;;;23.25;42.42;97395.72;5017533;28;20484;-76
2022/06/22 07:03:59;;;;;;;6.70;3.73;;;24.10;48.20;;;23.33;42.74;97394.16;5018969;28;20569;-74
2022/06/22 07:06:26;;;;;;;5.03;3.80;;;24.10;48.50;;;23.30;41.92;97403.06;5036246;27;20993;-74
2022/06/22 07:08:59;;;;;;;5.73;3.83;;;24.00;48.00;;;23.98;40.96;97405.66;5023439;28;20447;-76
2022/06/22 07:11:34;;;;;;;6.53;4.07;;;24.40;48.30;;;23.46;41.43;97404.31;5036161;27;20458;-75
2022/06/22 07:14:09;;;;;;;11.30;4.00;;;24.40;47.80;;;23.75;41.42;97389.22;5019805;28;20472;-73
2022/06/22 07:16:38;;;;;;;8.87;4.33;;;24.40;48.20;;;23.72;41.56;97400.84;5021213;27;20506;-75
2022/06/22 07:19:12;;;;;;;11.20;3.77;;;24.50;48.30;;;23.74;41.96;97401.38;5016162;27;20476;-74
2022/06/22 07:21:46;;;;;;;6.70;4.00;;;24.50;48.40;;;23.35;42.59;97405.69;5020470;28;20477;-73
2022/06/22 07:24:29;;;;;;;8.87;3.93;;;24.20;48.30;;;23.72;42.12;97405.56;5033363;27;20507;-74
2022/06/22 07:27:06;;;;;;;4.40;3.87;;;24.40;48.70;;;23.91;41.79;97408.09;5019957;28;20541;-74
2022/06/22 07:29:42;;;;;;;9.53;4.60;;;24.60;48.70;;;24.01;41.66;97402.25;5020854;28;20475;-75
2022/06/22 07:32:18;;;;;;;4.40;4.00;;;24.70;48.70;;;23.93;41.80;97405.81;5021867;28;20821;-75
2022/06/22 07:34:52;;;;;;;6.33;4.00;;;24.70;48.60;;;23.57;42.68;97390.22;5018962;27;20952;-82
2022/06/22 07:37:24;;;;;;;8.07;4.60;;;24.60;48.70;;;23.42;42.97;97403.28;5026900;28;20468;-74
2022/06/22 07:39:58;;;;;;;5.20;4.03;;;24.30;48.70;;;23.61;42.83;97394.00;5032188;28;20454;-74
2022/06/22 07:42:26;;;;;;;5.70;4.10;;;24.40;49.00;;;23.96;42.23;97399.66;5018955;28;21264;-74
2022/06/22 07:44:54;;;;;;;6.13;4.40;;;24.60;49.10;;;24.04;42.09;97407.19;5023198;28;20469;-75
2022/06/22 07:47:33;;;;;;;7.30;4.00;;;24.80;48.90;;;24.38;40.81;97404.03;5021270;28;21244;-75
2022/06/22 07:50:08;;;;;;;3.80;3.50;;;24.90;48.60;;;24.61;41.04;97402.75;5023050;28;20475;-74
2022/06/22 07:52:41;;;;;;;7.73;4.30;;;25.20;48.70;;;25.17;39.95;97401.31;5021063;28;20533;-76
2022/06/22 07:55:31;;;;;;;4.67;3.80;;;25.60;48.50;;;25.04;39.69;97356.16;5018399;28;20453;-75
2022/06/22 07:58:19;;;;;;;4.70;4.07;;;25.80;48.40;;;25.35;40.13;97396.59;5023510;28;20463;-74
2022/06/22 08:00:51;;;;;;;4.33;3.93;;;26.00;48.30;;;25.67;39.11;97393.63;5020392;28;20458;-74
2022/06/22 08:03:29;;;;;;;6.27;3.57;;;26.20;48.10;;;25.38;39.90;97395.94;5019481;28;20458;-74
2022/06/22 08:06:02;;;;;;;5.30;3.97;;;26.20;48.30;;;25.67;39.21;97397.19;5038894;28;20455;-74
2022/06/22 08:08:36;;;;;;;4.73;4.23;;;26.40;47.90;;;25.85;38.73;97397.13;5021181;28;20714;-75
2022/06/22 08:11:13;;;;;;;5.63;4.17;;;26.40;47.70;;;25.77;39.17;97398.78;5023628;28;21004;-75
2022/06/22 08:13:48;;;;;;;5.80;4.40;;;26.60;47.70;;;25.54;39.34;97393.50;5024118;28;20461;-75
2022/06/22 08:16:24;;;;;;;4.40;4.00;;;26.40;47.50;;;26.13;38.15;97389.19;5019663;28;20992;-73
2022/06/22 08:18:51;;;;;;;8.20;4.23;;;26.70;47.60;;;26.29;37.69;97383.91;5019749;28;20946;-75
2022/06/22 08:21:20;;;;;;;5.50;4.13;;;27.00;47.30;;;26.18;38.97;97391.00;5021834;28;20478;-75
2022/06/22 08:23:48;;;;;;;4.57;4.20;;;26.90;47.60;;;25.58;39.79;97383.38;5020718;27;20484;-75
2022/06/22 08:26:23;;;;;;;8.57;4.13;;;26.50;47.80;;;25.94;38.25;97394.34;5019917;28;20598;-75
2022/06/22 08:28:52;;;;;;;8.20;3.83;;;26.50;47.60;;;25.96;38.69;97383.75;5025122;28;20462;-74
2022/06/22 08:31:19;;;;;;;5.20;4.07;;;26.70;47.70;;;25.91;38.90;97379.19;5025739;28;20961;-74
2022/06/22 08:33:52;;;;;;;9.90;4.20;;;26.60;47.80;;;25.94;39.05;97392.38;5024502;28;20454;-75
2022/06/22 08:36:27;;;;;;;5.90;4.20;;;26.50;48.00;;;26.22;38.61;97391.94;5017016;28;20500;-74
2022/06/22 08:39:01;;;;;;;5.10;4.60;;;26.70;47.80;;;26.09;38.56;97390.19;5022280;27;20450;-75
2022/06/22 08:41:43;;;;;;;4.83;4.53;;;26.60;47.90;;;25.89;39.23;97398.09;5037344;28;20531;-74
2022/06/22 08:44:22;;;;;;;5.47;4.53;;;26.60;47.80;;;26.01;38.68;97395.44;5036249;27;20450;-74
2022/06/22 08:48:02;;;;;;;4.63;4.10;;;26.60;47.80;;;25.86;38.93;97394.03;5013613;28;20450;-73
2022/06/22 08:51:12;;;;;;;4.40;4.10;;;26.50;47.80;;;26.11;38.55;97398.97;5043053;27;20487;-74
2022/06/22 08:54:18;;;;;;;5.70;4.70;;;26.60;47.90;;;25.99;38.84;97386.63;5025515;28;20467;-75
2022/06/22 08:56:56;;;;;;;4.63;4.00;;;26.60;47.90;;;26.21;38.13;97397.78;5022695;28;20520;-75
2022/06/22 09:00:00;;;;;;;6.10;4.27;;;26.70;47.70;;;26.43;38.19;97402.22;5021718;27;20494;-74
2022/06/22 09:03:06;;;;;;;6.83;4.20;;;26.90;47.60;;;26.18;38.34;97391.00;5019653;28;20474;-74
2022/06/22 09:06:05;;;;;;;4.37;3.93;;;26.80;47.50;;;26.16;38.60;97396.03;4999995;28;20458;-75
2022/06/22 09:09:14;;;;;;;4.87;4.40;;;26.70;47.70;;;25.97;38.40;97366.00;5025594;28;20474;-73
2022/06/22 09:11:53;;;;;;;9.57;4.80;;;26.80;47.70;;;26.32;38.90;97396.28;5036785;28;20531;-74
2022/06/22 09:14:53;;;;;;;4.83;4.30;;;27.00;47.80;;;26.50;38.60;97402.53;5010712;27;20456;-74
2022/06/22 09:18:02;;;;;;;6.20;4.80;;;27.10;47.80;;;26.57;38.85;97405.56;4990676;28;20467;-75
2022/06/22 09:20:53;;;;;;;5.13;4.63;;;27.30;47.70;;;26.98;37.60;97402.34;5011891;28;20468;-75
2022/06/22 09:23:33;;;;;;;6.57;4.40;;;27.50;47.50;;;26.23;38.42;97396.31;5072653;27;20470;-75
2022/06/22 09:26:13;;;;;;;7.83;4.97;;;27.00;47.30;;;26.29;38.19;97403.28;5034016;28;20504;-74
2022/06/22 09:28:47;;;;;;;7.70;4.50;;;27.00;47.40;;;26.42;38.71;97393.13;5019526;28;20453;-74
2022/06/22 09:31:45;;;;;;;8.13;5.30;;;27.00;47.60;;;26.59;38.03;97403.25;5019417;28;20461;-76
2022/06/22 09:34:32;;;;;;;5.20;4.63;;;27.30;47.40;;;27.04;37.03;97392.66;5019626;28;20462;-75
2022/06/22 09:37:34;;;;;;;7.80;4.60;;;27.50;47.50;;;26.94;36.87;97395.88;5021733;27;20570;-75
2022/06/22 09:40:34;;;;;;;5.03;4.57;;;27.50;46.80;;;27.52;36.41;97398.75;5016527;27;20563;-75
2022/06/22 09:44:03;;;;;;;5.33;4.90;;;27.70;47.00;;;28.26;34.85;97403.59;5015727;27;20478;-74
2022/06/22 09:47:03;;;;;;;5.47;4.60;;;28.50;46.40;;;28.43;34.15;97365.63;5020385;28;20464;-74
2022/06/22 09:50:10;;;;;;;5.40;4.60;;;29.00;46.10;;;29.45;32.70;97401.94;5015588;27;20196;-75
2022/06/22 09:53:02;;;;;;;8.10;4.87;;;29.70;45.60;;;29.58;32.75;97403.47;5012618;28;20459;-75
2022/06/22 09:59:24;;;;;;;5.60;5.20;;;30.10;45.30;;;29.00;33.93;97396.31;5018530;28;20558;-75
2022/06/22 10:02:04;;;;;;;5.00;4.53;;;29.60;45.30;;;29.99;31.71;97402.53;5017688;28;20479;-75
2022/06/22 10:05:02;;;;;;;5.07;4.67;;;30.10;44.90;;;30.22;31.55;97397.94;5024064;27;20556;-74
2022/06/22 10:07:50;;;;;;;6.83;4.47;;;30.50;44.90;;;30.42;31.54;97405.56;5018604;28;20465;-74
2022/06/22 10:10:38;;;;;;;9.67;5.13;;;30.70;44.70;;;30.30;31.29;97395.34;5017512;28;20627;-74
2022/06/22 10:13:40;;;;;;;4.93;4.20;;;30.80;44.60;;;30.07;31.85;97395.97;5019927;28;20471;-74
2022/06/22 10:16:40;;;;;;;5.93;4.67;;;30.60;44.40;;;29.52;32.37;97402.94;5017089;28;20461;-74
2022/06/22 10:19:31;;;;;;;6.37;4.73;;;30.30;44.70;;;29.89;31.93;97401.09;5040164;28;20476;-73
2022/06/22 10:22:18;;;;;;;4.40;4.10;;;30.30;44.80;;;30.14;30.64;97396.16;5024601;28;20470;-73
2022/06/22 10:25:11;;;;;;;4.93;4.00;;;30.50;44.00;;;29.88;31.03;97399.47;5024745;28;20463;-74
2022/06/22 10:28:16;;;;;;;4.53;4.13;;;30.50;43.90;;;30.12;30.00;97390.16;5018413;28;20458;-74
2022/06/22 10:30:51;;;;;;;4.00;3.70;;;30.50;43.60;;;30.25;29.62;97400.03;5031318;28;20454;-74
2022/06/22 10:34:14;;;;;;;4.47;4.10;;;30.70;43.00;;;30.03;30.80;97400.66;5012739;28;20458;-74
2022/06/22 10:37:33;;;;;;;5.20;4.70;;;30.70;43.70;;;30.43;29.63;97407.16;4999961;28;20577;-74
2022/06/22 10:46:45;;;;;;;7.00;3.83;;;31.10;43.00;;;30.47;30.35;97402.47;5030427;28;20448;-75
2022/06/22 10:49:43;;;;;;;4.20;3.70;;;31.00;43.20;;;30.19;30.57;97403.44;5012905;28;20991;-73
2022/06/22 10:52:43;;;;;;;4.53;3.97;;;30.80;43.00;;;30.28;30.94;97392.91;5035673;28;20462;-75
2022/06/22 10:55:39;;;;;;;5.10;4.23;;;30.60;43.40;;;30.48;30.80;97396.56;5022457;28;20463;-73
2022/06/22 10:58:33;;;;;;;4.80;4.40;;;30.70;43.70;;;30.25;31.29;97400.03;5012927;28;20462;-76
2022/06/22 11:01:36;;;;;;;8.73;5.03;;;30.90;43.50;;;30.00;30.66;97396.59;5018486;28;20462;-75
2022/06/22 11:04:45;;;;;;;6.20;5.37;;;30.70;43.40;;;29.02;32.49;97405.09;5019180;28;20964;-74
2022/06/22 11:07:49;;;;;;;5.50;5.00;;;30.10;43.60;;;29.96;31.18;97396.50;5014402;28;20443;-74
2022/06/22 11:10:39;;;;;;;5.50;4.93;;;30.30;43.80;;;31.38;29.01;97378.16;5016462;28;20451;-75
2022/06/22 11:13:26;;;;;;;5.97;4.83;;;31.20;43.70;;;31.32;29.32;97385.22;5018060;28;20587;-74
2022/06/22 11:16:18;;;;;;;5.43;4.93;;;31.60;43.10;;;30.81;29.85;97394.50;5028739;28;20459;-74
2022/06/22 11:19:27;;;;;;;8.40;5.10;;;31.20;43.00;;;31.41;29.16;97378.56;5042078;28;20476;-73
2022/06/22 11:22:15;;;;;;;5.97;5.37;;;31.50;43.00;;;31.03;30.16;97387.41;5032150;28;20514;-74
2022/06/22 11:31:47;;;;;;;5.50;5.10;;;31.50;43.40;;;31.06;30.14;97392.25;5038297;27;20453;-74